Time;durP1;ratioP1;P1;durP2;ratioP2;P2;SDS_P1;SDS_P2;PMS_P1;PMS_P2;Temp;Humidity;BMP_temperature;BMP_pressure;BME280_temperature;BME280_humidity;BME280_pressure;Samples;Min_cycle;Max_cycle;Signal;HPM_P1;HPM_P2
2021/07/13 00:00:23;;;;;;;6.13;5.60;;;19.80;99.90;;;;;;4965432;28;20642;-86
2021/07/13 00:02:50;;;;;;;6.63;6.03;;;19.70;99.90;;;;;;4961883;28;20066;-85
2021/07/13 00:05:18;;;;;;;7.28;6.78;;;19.80;99.90;;;;;;4964714;28;20055;-86
2021/07/13 00:07:47;;;;;;;6.55;5.88;;;19.70;99.90;;;;;;4960128;28;20517;-85
2021/07/13 00:10:20;;;;;;;9.13;7.15;;;19.70;99.90;;;;;;4960993;28;20051;-85
2021/07/13 00:12:48;;;;;;;7.38;6.68;;;19.70;99.90;;;;;;4945811;28;20544;-85
2021/07/13 00:15:24;;;;;;;6.45;5.80;;;19.70;99.90;;;;;;4949087;28;20098;-85
2021/07/13 00:17:53;;;;;;;7.43;6.72;;;19.70;99.90;;;;;;4973255;28;20738;-85
2021/07/13 00:20:20;;;;;;;6.35;5.57;;;19.70;99.90;;;;;;4943355;28;20051;-86
2021/07/13 00:22:47;;;;;;;5.70;5.30;;;19.60;99.90;;;;;;4948845;28;20062;-86
2021/07/13 00:25:16;;;;;;;6.75;6.15;;;19.60;99.90;;;;;;4964814;28;20050;-86
2021/07/13 00:27:45;;;;;;;6.63;6.03;;;19.60;99.90;;;;;;4947801;28;20645;-85
2021/07/13 00:30:13;;;;;;;5.88;5.38;;;19.60;99.90;;;;;;4986357;28;20166;-86
2021/07/13 00:32:41;;;;;;;6.43;5.88;;;19.60;99.90;;;;;;4980226;28;20102;-85
2021/07/13 00:35:09;;;;;;;6.53;6.03;;;19.60;99.90;;;;;;4960648;28;20051;-85
2021/07/13 00:37:37;;;;;;;6.53;6.03;;;19.60;99.90;;;;;;4978022;28;20039;-86
2021/07/13 00:40:06;;;;;;;5.63;4.90;;;19.60;99.90;;;;;;4975714;28;20098;-86
2021/07/13 00:42:34;;;;;;;7.37;6.77;;;19.60;99.90;;;;;;4947014;28;20130;-85
2021/07/13 00:45:01;;;;;;;6.93;5.30;;;19.60;99.90;;;;;;4962512;28;20051;-85
2021/07/13 00:47:28;;;;;;;6.47;5.97;;;19.60;99.90;;;;;;4977576;28;20062;-86
2021/07/13 00:49:55;;;;;;;7.93;6.45;;;19.60;99.90;;;;;;4978399;28;20543;-86
2021/07/13 00:52:22;;;;;;;7.65;6.93;;;19.50;99.90;;;;;;4981480;28;20053;-85
2021/07/13 00:54:50;;;;;;;6.15;5.32;;;19.50;99.90;;;;;;4967084;28;20101;-85
2021/07/13 00:57:18;;;;;;;6.95;6.30;;;19.50;99.90;;;;;;4961690;28;20429;-85
2021/07/13 00:59:47;;;;;;;6.15;5.65;;;19.50;99.90;;;;;;4967376;28;20043;-85
2021/07/13 01:02:16;;;;;;;8.65;6.00;;;19.50;99.90;;;;;;4963928;28;20046;-85
2021/07/13 01:04:48;;;;;;;8.73;7.03;;;19.50;99.90;;;;;;4981097;28;20564;-85
2021/07/13 01:07:18;;;;;;;6.68;5.78;;;19.40;99.90;;;;;;4965289;28;20062;-85
2021/07/13 01:10:00;;;;;;;5.75;5.35;;;19.40;99.90;;;;;;4967559;28;20050;-86
2021/07/13 01:12:46;;;;;;;6.50;6.00;;;19.40;99.90;;;;;;4963650;28;20054;-85
2021/07/13 01:15:18;;;;;;;7.63;7.03;;;19.40;99.90;;;;;;4964004;28;20073;-86
2021/07/13 01:17:55;;;;;;;6.63;6.03;;;19.40;99.90;;;;;;4965603;28;20395;-85
2021/07/13 01:21:00;;;;;;;7.63;7.00;;;19.40;99.90;;;;;;4960855;28;20370;-85
2021/07/13 01:24:09;;;;;;;11.48;7.03;;;19.40;99.90;;;;;;4967317;28;20039;-85
2021/07/13 01:26:42;;;;;;;8.65;7.80;;;19.30;99.90;;;;;;4964945;28;20452;-85
2021/07/13 01:29:12;;;;;;;7.30;6.80;;;19.30;99.90;;;;;;4966396;28;20514;-85
2021/07/13 01:31:42;;;;;;;6.38;5.72;;;19.30;99.90;;;;;;4956871;28;20059;-85
2021/07/13 01:34:24;;;;;;;;;;;19.30;99.90;;;;;;4965457;28;20046;-86
2021/07/13 01:36:55;;;;;;;6.35;5.75;;;19.30;99.90;;;;;;4963364;28;19922;-85
2021/07/13 01:39:24;;;;;;;7.35;6.65;;;19.30;99.90;;;;;;4960901;28;20043;-85
2021/07/13 01:41:55;;;;;;;6.93;6.32;;;19.30;99.90;;;;;;4960760;28;20107;-85
2021/07/13 01:44:23;;;;;;;5.22;4.82;;;19.30;99.90;;;;;;4960564;28;20054;-85
2021/07/13 01:46:51;;;;;;;6.85;6.25;;;19.20;99.90;;;;;;4975466;28;20047;-85
2021/07/13 01:49:21;;;;;;;6.90;6.10;;;19.20;99.90;;;;;;4983468;28;20051;-85
2021/07/13 01:51:51;;;;;;;7.18;6.55;;;19.20;99.90;;;;;;4963617;28;20043;-85
2021/07/13 01:54:22;;;;;;;6.10;5.60;;;19.20;99.90;;;;;;4965603;28;20035;-85
2021/07/13 01:56:53;;;;;;;7.60;6.95;;;19.20;99.90;;;;;;4965962;28;21509;-86
2021/07/13 01:59:22;;;;;;;7.13;6.60;;;19.20;99.90;;;;;;4980294;28;20053;-85
2021/07/13 02:01:53;;;;;;;7.32;6.72;;;19.20;99.90;;;;;;4966240;28;20050;-85
2021/07/13 02:04:26;;;;;;;7.88;7.05;;;19.10;99.90;;;;;;4948245;28;20331;-85
2021/07/13 02:06:54;;;;;;;6.35;5.85;;;19.10;99.90;;;;;;4981170;28;20062;-85
2021/07/13 02:09:22;;;;;;;6.38;5.82;;;19.10;99.90;;;;;;4977862;28;20544;-85
2021/07/13 02:11:50;;;;;;;7.25;6.50;;;19.10;99.90;;;;;;4964171;28;20039;-85
2021/07/13 02:14:18;;;;;;;6.90;6.30;;;19.00;99.90;;;;;;4947013;28;20125;-85
2021/07/13 02:16:45;;;;;;;6.65;6.10;;;19.00;99.90;;;;;;4980180;28;20050;-85
2021/07/13 02:19:12;;;;;;;6.78;6.18;;;19.00;99.90;;;;;;4964346;28;20057;-84
2021/07/13 02:21:39;;;;;;;7.22;6.53;;;19.00;99.90;;;;;;4963173;28;20062;-85
2021/07/13 02:24:07;;;;;;;6.25;5.72;;;18.90;99.90;;;;;;4964887;28;20047;-85
2021/07/13 02:26:43;;;;;;;7.05;6.35;;;19.00;99.90;;;;;;4965146;28;20082;-85
2021/07/13 02:29:30;;;;;;;7.13;6.63;;;19.00;99.90;;;;;;4979659;28;20504;-85
2021/07/13 02:32:00;;;;;;;7.70;7.00;;;18.90;99.90;;;;;;4962313;28;20425;-85
2021/07/13 02:34:30;;;;;;;8.10;7.40;;;18.90;99.90;;;;;;4965749;28;20054;-84
2021/07/13 02:37:00;;;;;;;9.35;7.28;;;18.90;99.90;;;;;;4957611;28;20048;-85
2021/07/13 02:39:31;;;;;;;8.10;7.05;;;18.90;99.90;;;;;;4949116;28;20090;-84
2021/07/13 02:41:59;;;;;;;7.18;6.65;;;18.90;99.90;;;;;;4946702;28;20042;-85
2021/07/13 02:44:29;;;;;;;7.10;6.35;;;18.90;99.90;;;;;;4928707;29;20390;-85
2021/07/13 02:46:57;;;;;;;6.75;6.15;;;18.90;99.90;;;;;;4945020;28;20047;-85
2021/07/13 02:49:30;;;;;;;6.82;6.25;;;18.90;99.90;;;;;;4960648;28;20040;-85
2021/07/13 02:52:02;;;;;;;6.65;6.05;;;18.90;99.90;;;;;;4961038;28;20051;-85
2021/07/13 02:54:30;;;;;;;7.57;6.88;;;18.90;99.90;;;;;;4965953;28;20480;-85
2021/07/13 02:57:02;;;;;;;7.40;6.75;;;18.90;99.90;;;;;;4963194;28;20062;-85
2021/07/13 02:59:30;;;;;;;10.02;8.82;;;19.00;99.90;;;;;;4966290;28;20043;-85
2021/07/13 03:02:00;;;;;;;6.93;6.25;;;19.00;99.90;;;;;;4961849;28;20046;-85
2021/07/13 03:04:28;;;;;;;9.43;7.10;;;19.00;99.90;;;;;;4968406;28;20039;-85
2021/07/13 03:06:56;;;;;;;8.02;7.20;;;19.10;99.90;;;;;;4964375;28;20098;-85
2021/07/13 03:09:23;;;;;;;6.57;5.97;;;19.10;99.90;;;;;;4968475;28;20043;-85
2021/07/13 03:11:50;;;;;;;9.65;7.15;;;19.10;99.90;;;;;;4966045;28;20047;-85
2021/07/13 03:14:19;;;;;;;6.45;5.85;;;19.10;99.90;;;;;;4969787;28;20349;-85
2021/07/13 03:16:48;;;;;;;7.20;6.50;;;19.20;99.90;;;;;;4968712;28;20615;-86
2021/07/13 03:19:16;;;;;;;6.83;6.23;;;19.20;99.90;;;;;;4964573;28;20072;-85
2021/07/13 03:21:50;;;;;;;7.05;6.55;;;19.20;99.90;;;;;;4967690;28;20423;-85
2021/07/13 03:24:19;;;;;;;9.15;6.85;;;19.20;99.90;;;;;;4967329;28;20547;-85
2021/07/13 03:26:46;;;;;;;7.25;6.57;;;19.30;99.90;;;;;;4969483;28;20043;-85
2021/07/13 03:29:15;;;;;;;6.95;6.35;;;19.30;99.90;;;;;;4967947;28;20058;-85
2021/07/13 03:31:43;;;;;;;7.45;6.78;;;19.30;99.90;;;;;;4963105;28;20051;-85
2021/07/13 03:34:11;;;;;;;12.32;7.75;;;19.30;99.90;;;;;;4957447;28;20046;-85
2021/07/13 03:36:38;;;;;;;7.63;6.90;;;19.40;99.90;;;;;;4982949;28;20053;-85
2021/07/13 03:39:08;;;;;;;7.38;6.78;;;19.50;99.90;;;;;;4950742;28;20143;-85
2021/07/13 03:41:36;;;;;;;8.00;6.93;;;19.50;99.90;;;;;;4951189;28;20050;-86
2021/07/13 03:44:05;;;;;;;10.38;7.25;;;19.60;99.90;;;;;;4966219;28;20035;-85
2021/07/13 03:46:37;;;;;;;7.43;6.75;;;19.60;99.90;;;;;;4966817;28;20050;-85
2021/07/13 03:49:06;;;;;;;7.13;6.43;;;19.70;99.90;;;;;;4966037;28;20129;-85
2021/07/13 03:51:40;;;;;;;6.47;6.05;;;19.70;99.90;;;;;;4980118;28;20141;-85
2021/07/13 03:54:07;;;;;;;7.60;6.63;;;19.80;99.90;;;;;;4963197;28;20098;-85
2021/07/13 03:56:35;;;;;;;8.80;8.05;;;19.80;99.90;;;;;;4980470;28;20497;-85
2021/07/13 03:59:03;;;;;;;8.55;7.65;;;19.80;99.90;;;;;;4983216;28;20126;-86
2021/07/13 04:01:30;;;;;;;7.18;6.43;;;19.90;99.90;;;;;;4967013;28;20079;-85
2021/07/13 04:03:57;;;;;;;6.72;6.13;;;19.90;99.90;;;;;;4965277;28;20085;-85
2021/07/13 04:06:24;;;;;;;7.18;6.47;;;20.00;99.90;;;;;;4965228;28;20489;-85
2021/07/13 04:08:51;;;;;;;7.85;6.60;;;20.10;99.90;;;;;;4982278;28;20049;-85
2021/07/13 04:11:18;;;;;;;6.80;6.22;;;20.10;99.90;;;;;;4966241;28;20416;-85
2021/07/13 04:13:46;;;;;;;7.22;6.63;;;20.20;99.90;;;;;;4967360;28;20161;-85
2021/07/13 04:16:13;;;;;;;14.40;7.40;;;20.20;99.90;;;;;;4981972;28;20055;-85
2021/07/13 04:18:41;;;;;;;7.53;6.25;;;20.30;99.90;;;;;;4967777;28;20154;-85
2021/07/13 04:21:08;;;;;;;9.98;7.13;;;20.30;99.90;;;;;;4981529;28;20626;-85
2021/07/13 04:23:36;;;;;;;9.07;6.55;;;20.40;99.90;;;;;;4950603;28;20058;-86
2021/07/13 04:26:05;;;;;;;7.53;6.63;;;20.50;99.90;;;;;;4966573;28;20147;-86
2021/07/13 04:28:32;;;;;;;9.13;6.97;;;20.60;99.90;;;;;;4982089;28;20073;-85
2021/07/13 04:31:00;;;;;;;7.10;6.60;;;20.60;99.90;;;;;;4968227;28;20062;-85
2021/07/13 04:33:28;;;;;;;6.82;6.22;;;20.70;99.90;;;;;;4969178;28;20113;-85
2021/07/13 04:35:55;;;;;;;6.05;5.28;;;20.70;99.90;;;;;;4966172;28;20054;-86
2021/07/13 04:38:22;;;;;;;6.18;5.53;;;20.80;99.90;;;;;;4982362;28;20043;-85
2021/07/13 04:41:06;;;;;;;10.73;6.15;;;20.80;99.90;;;;;;4967023;28;20035;-85
2021/07/13 04:43:33;;;;;;;6.63;6.03;;;21.00;99.90;;;;;;4970192;28;20038;-85
2021/07/13 04:46:00;;;;;;;6.10;5.57;;;21.00;99.90;;;;;;4965795;28;20511;-86
2021/07/13 04:48:27;;;;;;;5.88;5.30;;;21.10;99.90;;;;;;4951398;28;20105;-85
2021/07/13 04:50:54;;;;;;;7.07;6.45;;;21.20;99.90;;;;;;4969729;28;20046;-86
2021/07/13 04:53:21;;;;;;;6.38;5.88;;;21.30;99.90;;;;;;4967793;28;20051;-85
2021/07/13 04:55:48;;;;;;;5.47;4.97;;;21.30;99.90;;;;;;4951141;28;20046;-86
2021/07/13 04:58:15;;;;;;;6.82;5.85;;;21.40;99.90;;;;;;4967275;28;20089;-85
2021/07/13 05:00:42;;;;;;;6.22;5.63;;;21.40;99.90;;;;;;4968629;28;20490;-86
2021/07/13 05:03:09;;;;;;;8.50;7.72;;;21.50;99.90;;;;;;4987568;28;20050;-86
2021/07/13 05:05:40;;;;;;;11.25;7.72;;;21.50;99.90;;;;;;4968829;28;20043;-85
2021/07/13 05:08:07;;;;;;;6.88;6.28;;;21.60;99.90;;;;;;4963521;28;20053;-86
2021/07/13 05:10:34;;;;;;;6.07;5.50;;;21.70;99.90;;;;;;4967168;28;20051;-85
2021/07/13 05:13:01;;;;;;;6.15;5.50;;;21.70;99.90;;;;;;4963604;28;21358;-85
2021/07/13 05:15:28;;;;;;;5.05;4.65;;;21.80;99.90;;;;;;4968653;28;20076;-86
2021/07/13 05:17:57;;;;;;;7.35;5.78;;;21.90;99.90;;;;;;4981514;28;20162;-86
2021/07/13 05:20:24;;;;;;;8.43;5.38;;;22.00;99.90;;;;;;4984628;28;20054;-86
2021/07/13 05:22:58;;;;;;;6.82;5.95;;;22.10;99.90;;;;;;4967540;28;20506;-86
2021/07/13 05:25:29;;;;;;;8.80;5.38;;;22.20;99.90;;;;;;4969996;28;20043;-84
2021/07/13 05:27:56;;;;;;;6.78;5.45;;;22.40;99.90;;;;;;4962619;28;20081;-85
2021/07/13 05:30:23;;;;;;;8.20;5.85;;;22.50;99.90;;;;;;4968116;28;20046;-85
2021/07/13 05:32:53;;;;;;;5.07;4.60;;;22.60;99.90;;;;;;4981893;28;20121;-86
2021/07/13 05:35:21;;;;;;;6.93;4.60;;;22.80;99.90;;;;;;4961509;28;20035;-85
2021/07/13 05:37:48;;;;;;;7.15;4.90;;;22.90;99.90;;;;;;4967382;28;20424;-85
2021/07/13 05:40:16;;;;;;;4.97;4.53;;;23.00;99.90;;;;;;4964757;28;20200;-86
2021/07/13 05:42:43;;;;;;;6.32;5.45;;;23.10;99.90;;;;;;4967144;28;20046;-86
2021/07/13 05:45:11;;;;;;;5.35;4.82;;;23.20;99.90;;;;;;4949566;28;20043;-86
2021/07/13 05:47:38;;;;;;;5.60;5.10;;;23.30;99.90;;;;;;4966755;28;20039;-85
2021/07/13 05:50:08;;;;;;;5.32;4.80;;;23.40;99.90;;;;;;4961149;28;20477;-85
2021/07/13 05:52:35;;;;;;;4.07;3.78;;;23.50;99.90;;;;;;4965537;28;20055;-86
2021/07/13 05:55:03;;;;;;;5.30;4.57;;;23.60;99.90;;;;;;4966878;28;20047;-86
2021/07/13 05:57:30;;;;;;;6.90;5.55;;;23.70;99.90;;;;;;4965705;28;20467;-86
2021/07/13 05:59:58;;;;;;;4.63;4.32;;;23.80;99.90;;;;;;4965178;28;20655;-86
2021/07/13 06:02:27;;;;;;;7.22;5.97;;;23.80;99.90;;;;;;4966395;28;20058;-86
2021/07/13 06:04:54;;;;;;;5.00;4.60;;;23.80;99.90;;;;;;4965248;28;20042;-86
2021/07/13 06:07:20;;;;;;;5.50;4.63;;;23.90;99.90;;;;;;4980645;28;20055;-85
2021/07/13 06:09:47;;;;;;;6.68;5.93;;;23.90;99.90;;;;;;4979840;28;20066;-86
2021/07/13 06:12:14;;;;;;;6.65;6.05;;;23.90;99.90;;;;;;4964220;28;20109;-85
2021/07/13 06:14:41;;;;;;;7.03;5.43;;;23.90;99.90;;;;;;4963578;28;20378;-86
2021/07/13 06:17:10;;;;;;;6.20;5.38;;;23.90;99.90;;;;;;4966114;28;20110;-86
2021/07/13 06:19:37;;;;;;;5.45;4.95;;;23.90;99.90;;;;;;4979198;28;20042;-85
2021/07/13 06:22:05;;;;;;;6.90;5.60;;;23.90;99.90;;;;;;4959585;28;20054;-86
2021/07/13 06:24:32;;;;;;;5.75;5.25;;;23.90;99.90;;;;;;4967333;28;20046;-86
2021/07/13 06:26:59;;;;;;;7.03;5.60;;;24.00;99.90;;;;;;4980992;28;20050;-86
2021/07/13 06:29:26;;;;;;;6.05;5.55;;;24.10;99.90;;;;;;4967480;28;20050;-85
2021/07/13 06:31:53;;;;;;;6.18;5.57;;;24.20;99.90;;;;;;4964008;28;20039;-86
2021/07/13 06:34:21;;;;;;;6.88;6.03;;;24.30;99.90;;;;;;4976128;28;20056;-86
2021/07/13 06:36:53;;;;;;;6.70;6.05;;;24.40;99.90;;;;;;4985075;28;20137;-86
2021/07/13 06:39:20;;;;;;;8.02;5.60;;;24.50;99.90;;;;;;4967177;28;20209;-85
2021/07/13 06:41:47;;;;;;;6.63;6.13;;;24.50;99.90;;;;;;4967413;28;20050;-86
2021/07/13 06:44:14;;;;;;;7.88;5.68;;;24.60;99.90;;;;;;4983888;28;20090;-86
2021/07/13 06:46:41;;;;;;;9.52;6.22;;;24.60;99.90;;;;;;4986536;28;20113;-86
2021/07/13 06:49:08;;;;;;;6.82;6.22;;;24.70;99.90;;;;;;4970793;28;20472;-86
2021/07/13 06:51:35;;;;;;;6.85;5.97;;;24.80;99.90;;;;;;4967511;28;20842;-86
2021/07/13 06:54:02;;;;;;;9.30;6.63;;;24.80;99.90;;;;;;4962709;28;20492;-86
2021/07/13 06:56:30;;;;;;;6.88;5.80;;;24.80;99.90;;;;;;4970100;28;20050;-86
2021/07/13 06:58:56;;;;;;;10.75;5.78;;;24.80;99.90;;;;;;4969547;28;20393;-85
2021/07/13 07:01:23;;;;;;;9.30;7.40;;;24.60;99.90;;;;;;4967624;28;20066;-86
2021/07/13 07:03:50;;;;;;;6.72;6.18;;;24.50;99.90;;;;;;4967705;28;20046;-86
2021/07/13 07:06:17;;;;;;;7.07;6.38;;;24.50;99.90;;;;;;4967852;28;20055;-86
2021/07/13 07:08:44;;;;;;;6.05;5.55;;;24.50;99.90;;;;;;4982805;28;20046;-85
2021/07/13 07:11:12;;;;;;;6.63;6.03;;;24.40;99.90;;;;;;4987296;28;20054;-85
2021/07/13 07:13:39;;;;;;;7.60;6.78;;;24.50;99.90;;;;;;4966103;28;20493;-86
2021/07/13 07:16:07;;;;;;;7.75;7.00;;;24.50;99.90;;;;;;4950666;28;20400;-85
2021/07/13 07:18:34;;;;;;;6.40;5.90;;;24.50;99.90;;;;;;4949607;28;20039;-86
2021/07/13 07:21:01;;;;;;;6.55;5.95;;;24.60;99.90;;;;;;4967940;28;20086;-85
2021/07/13 07:23:28;;;;;;;7.38;6.68;;;24.60;99.90;;;;;;4967539;28;20058;-85
2021/07/13 07:25:56;;;;;;;8.20;7.43;;;24.70;99.90;;;;;;4967585;28;20074;-85
2021/07/13 07:28:23;;;;;;;8.90;7.55;;;24.70;99.90;;;;;;4969174;28;20481;-86
2021/07/13 07:30:50;;;;;;;8.07;7.28;;;24.70;99.90;;;;;;4981635;28;20054;-86
2021/07/13 07:33:17;;;;;;;10.45;7.00;;;24.70;99.90;;;;;;4969234;28;20058;-86
2021/07/13 07:35:44;;;;;;;6.72;6.13;;;24.70;99.90;;;;;;4987943;28;20068;-86
2021/07/13 07:38:11;;;;;;;6.57;5.93;;;24.80;99.90;;;;;;4982570;28;20059;-87
2021/07/13 07:40:39;;;;;;;9.82;6.47;;;24.90;99.90;;;;;;4968373;28;20054;-86
2021/07/13 07:43:07;;;;;;;7.55;6.50;;;25.00;99.90;;;;;;4969201;28;20473;-86
2021/07/13 07:45:34;;;;;;;8.52;7.72;;;25.10;99.90;;;;;;4967179;28;20157;-86
2021/07/13 07:48:03;;;;;;;8.35;7.45;;;25.20;99.90;;;;;;4965588;28;20057;-86
2021/07/13 07:50:31;;;;;;;8.32;6.60;;;25.30;99.90;;;;;;4969184;28;20084;-86
2021/07/13 07:52:58;;;;;;;8.25;6.65;;;25.40;99.90;;;;;;4982080;28;20054;-86
2021/07/13 07:55:27;;;;;;;8.05;7.35;;;25.40;99.90;;;;;;4967399;28;20113;-86
2021/07/13 07:57:55;;;;;;;6.53;6.03;;;25.50;99.90;;;;;;4967337;28;20042;-87
2021/07/13 08:00:22;;;;;;;7.78;7.13;;;25.60;99.90;;;;;;4970617;28;20049;-86
2021/07/13 08:02:49;;;;;;;8.30;7.45;;;25.70;99.90;;;;;;4965333;28;20511;-86
2021/07/13 08:05:16;;;;;;;9.68;8.77;;;25.80;99.90;;;;;;4967074;28;20050;-86
2021/07/13 08:07:45;;;;;;;9.13;7.38;;;25.90;99.90;;;;;;4968520;28;20074;-86
2021/07/13 08:10:14;;;;;;;8.30;7.50;;;26.00;99.90;;;;;;4967383;28;20129;-86
2021/07/13 08:12:42;;;;;;;9.48;7.47;;;26.10;99.90;;;;;;4967127;28;20466;-86
2021/07/13 08:15:11;;;;;;;7.60;6.88;;;26.10;99.90;;;;;;4981944;28;20073;-86
2021/07/13 08:17:39;;;;;;;9.00;6.93;;;26.10;99.90;;;;;;4948159;28;20043;-86
2021/07/13 08:20:09;;;;;;;8.68;6.55;;;26.20;99.90;;;;;;4967240;28;20098;-86
2021/07/13 08:22:37;;;;;;;8.18;6.55;;;26.30;99.90;;;;;;4948509;28;20050;-87
2021/07/13 08:25:05;;;;;;;10.63;7.25;;;26.50;99.90;;;;;;4983023;28;20042;-86
2021/07/13 08:27:32;;;;;;;8.45;7.65;;;26.60;99.90;;;;;;4965029;28;20074;-86
2021/07/13 08:29:59;;;;;;;7.30;6.60;;;26.60;99.90;;;;;;4965422;28;20051;-87
2021/07/13 08:32:26;;;;;;;9.00;7.93;;;26.70;99.90;;;;;;4965793;28;20050;-86
2021/07/13 08:34:53;;;;;;;7.53;6.78;;;26.70;99.90;;;;;;4965930;28;20113;-86
2021/07/13 08:37:21;;;;;;;7.75;7.15;;;26.80;99.90;;;;;;4965505;28;20500;-86
2021/07/13 08:39:49;;;;;;;7.45;6.88;;;26.80;99.90;;;;;;4965946;28;20116;-86
2021/07/13 08:42:16;;;;;;;7.15;6.50;;;26.90;99.90;;;;;;4966009;28;20042;-86
2021/07/13 08:44:43;;;;;;;7.82;7.13;;;26.90;99.90;;;;;;4965528;28;20102;-86
2021/07/13 08:47:15;;;;;;;9.27;7.00;;;26.90;99.90;;;;;;4968199;28;20145;-86
2021/07/13 08:49:44;;;;;;;7.15;6.55;;;27.00;99.90;;;;;;4979569;28;20078;-87
2021/07/13 08:52:11;;;;;;;8.97;7.30;;;27.10;99.90;;;;;;4964102;28;20105;-86
2021/07/13 08:54:39;;;;;;;8.70;7.90;;;27.10;99.90;;;;;;4966027;28;20051;-86
2021/07/13 08:57:09;;;;;;;8.43;7.72;;;27.20;99.90;;;;;;4966548;28;20065;-85
2021/07/13 08:59:38;;;;;;;8.85;8.10;;;27.20;99.90;;;;;;4964238;28;20705;-86
2021/07/13 09:02:05;;;;;;;8.00;7.25;;;27.30;99.90;;;;;;4966284;28;20050;-86
2021/07/13 09:04:34;;;;;;;7.10;6.53;;;27.30;99.90;;;;;;4966958;28;20039;-86
2021/07/13 09:07:06;;;;;;;10.20;9.25;;;27.30;99.90;;;;;;4950720;28;20046;-85
2021/07/13 09:09:39;;;;;;;9.93;7.18;;;27.40;99.90;;;;;;4962779;28;20042;-86
2021/07/13 09:12:16;;;;;;;8.90;7.85;;;27.40;99.90;;;;;;4964596;28;20078;-86
2021/07/13 09:14:59;;;;;;;11.85;7.03;;;27.50;99.90;;;;;;4981130;28;20043;-86
2021/07/13 09:17:26;;;;;;;9.70;8.77;;;27.60;99.90;;;;;;4966914;28;20392;-86
2021/07/13 09:20:24;;;;;;;28.10;8.80;;;27.60;99.90;;;;;;4965461;28;20136;-86
2021/07/13 09:22:54;;;;;;;9.52;8.20;;;27.70;99.90;;;;;;4956366;28;20046;-86
2021/07/13 09:25:23;;;;;;;;;;;27.80;99.90;;;;;;4965676;28;20038;-86
2021/07/13 09:28:04;;;;;;;8.45;7.75;;;27.90;99.90;;;;;;4965289;28;19926;-86
2021/07/13 09:30:31;;;;;;;7.53;6.93;;;28.00;99.90;;;;;;4949397;28;20078;-87
2021/07/13 09:33:33;;;;;;;8.68;7.70;;;28.00;99.90;;;;;;4967844;28;20078;-86
2021/07/13 09:36:08;;;;;;;8.32;7.63;;;28.00;99.90;;;;;;4901814;28;20061;-86
2021/07/13 09:38:37;;;;;;;9.05;7.90;;;28.10;99.90;;;;;;4965275;28;20043;-86
2021/07/13 09:41:16;;;;;;;9.88;8.98;;;28.20;99.90;;;;;;4979329;28;20490;-86
2021/07/13 09:43:52;;;;;;;8.68;8.07;;;28.30;99.90;;;;;;4966836;28;20516;-86
2021/07/13 09:46:32;;;;;;;7.97;7.38;;;28.20;99.90;;;;;;4979775;28;20042;-86
2021/07/13 09:49:13;;;;;;;9.98;9.05;;;28.30;99.90;;;;;;4967458;28;20039;-86
2021/07/13 09:51:43;;;;;;;10.43;9.45;;;28.40;99.90;;;;;;4964255;28;20046;-86
2021/07/13 09:54:34;;;;;;;9.80;8.90;;;28.40;99.90;;;;;;4949344;28;20772;-86
2021/07/13 09:57:27;;;;;;;9.25;8.48;;;28.40;99.90;;;;;;4966050;28;20053;-86
2021/07/13 09:59:58;;;;;;;9.38;8.40;;;28.40;99.90;;;;;;4964536;28;20606;-86
2021/07/13 10:02:26;;;;;;;11.02;9.60;;;28.40;99.90;;;;;;4966621;28;20126;-86
2021/07/13 10:04:56;;;;;;;9.80;8.95;;;28.60;99.90;;;;;;4978264;28;20551;-86
2021/07/13 10:07:27;;;;;;;9.75;8.68;;;28.70;99.90;;;;;;4950396;28;20070;-86
2021/07/13 10:10:00;;;;;;;9.65;8.85;;;28.80;99.90;;;;;;4966415;28;20400;-86
2021/07/13 10:12:28;;;;;;;9.55;8.75;;;28.90;99.90;;;;;;4962341;28;20120;-86
2021/07/13 10:14:57;;;;;;;9.90;9.05;;;29.00;99.90;;;;;;4979721;28;20046;-86
2021/07/13 10:17:30;;;;;;;10.25;9.35;;;29.10;99.90;;;;;;4968838;28;20653;-86
2021/07/13 10:20:06;;;;;;;10.52;9.63;;;29.20;99.90;;;;;;4968389;28;20039;-86
2021/07/13 10:22:35;;;;;;;9.70;8.90;;;29.40;99.90;;;;;;4966600;28;20069;-86
2021/07/13 10:25:03;;;;;;;12.03;9.40;;;29.40;99.90;;;;;;4985088;28;20050;-86
2021/07/13 10:27:31;;;;;;;10.25;9.15;;;29.50;99.90;;;;;;4968861;28;20144;-86
2021/07/13 10:30:03;;;;;;;10.10;9.20;;;29.40;99.90;;;;;;4966946;28;20430;-86
2021/07/13 10:32:32;;;;;;;9.25;8.32;;;29.50;99.90;;;;;;4952774;28;20510;-86
2021/07/13 10:35:04;;;;;;;9.13;8.25;;;29.50;99.90;;;;;;4953260;28;20469;-86
2021/07/13 10:37:37;;;;;;;9.57;8.68;;;29.60;99.90;;;;;;4966971;28;20049;-86
2021/07/13 10:40:08;;;;;;;11.45;10.40;;;29.70;99.90;;;;;;4967253;28;20617;-86
2021/07/13 10:42:42;;;;;;;10.15;9.32;;;29.70;99.90;;;;;;4967313;28;20047;-86
2021/07/13 10:45:24;;;;;;;11.43;10.43;;;29.80;99.90;;;;;;4968532;28;20047;-86
2021/07/13 10:48:20;;;;;;;12.02;11.05;;;29.90;99.90;;;;;;4951010;28;20566;-86
2021/07/13 10:51:05;;;;;;;11.77;10.07;;;30.10;99.90;;;;;;4982182;28;20552;-86
2021/07/13 10:53:39;;;;;;;11.20;10.07;;;30.10;99.90;;;;;;4967696;28;20051;-86
2021/07/13 10:56:12;;;;;;;9.00;8.20;;;30.10;99.90;;;;;;4968547;28;20054;-86
2021/07/13 10:58:44;;;;;;;10.48;9.57;;;30.10;99.90;;;;;;4969733;28;20057;-86
2021/07/13 11:01:21;;;;;;;10.07;9.27;;;30.20;99.90;;;;;;4952789;28;20055;-85
2021/07/13 11:03:48;;;;;;;10.30;9.30;;;30.20;99.90;;;;;;4966761;28;20051;-86
2021/07/13 11:06:17;;;;;;;12.27;10.20;;;30.40;99.90;;;;;;4967954;28;20101;-86
2021/07/13 11:08:44;;;;;;;11.63;10.50;;;30.40;99.90;;;;;;4966660;28;20536;-86
2021/07/13 11:11:14;;;;;;;11.25;9.43;;;30.50;99.90;;;;;;4965715;28;20064;-86
2021/07/13 11:13:44;;;;;;;12.15;10.85;;;30.60;99.90;;;;;;4984717;28;20039;-86
2021/07/13 11:16:12;;;;;;;11.65;10.55;;;30.60;99.90;;;;;;4961921;28;20077;-86
2021/07/13 11:18:40;;;;;;;11.25;10.40;;;30.60;99.90;;;;;;4952512;28;20357;-86
2021/07/13 11:21:19;;;;;;;10.48;9.57;;;30.60;99.90;;;;;;4968674;28;20055;-86
2021/07/13 11:23:51;;;;;;;12.10;10.83;;;30.60;99.90;;;;;;4968756;28;20141;-86
2021/07/13 11:26:19;;;;;;;11.60;10.60;;;30.60;99.90;;;;;;4972970;28;20066;-85
2021/07/13 11:28:48;;;;;;;10.82;9.73;;;30.70;99.90;;;;;;4968592;28;20112;-87
2021/07/13 11:31:24;;;;;;;11.73;10.65;;;30.70;99.90;;;;;;4950454;28;20089;-86
2021/07/13 11:34:12;;;;;;;10.45;9.55;;;30.70;99.90;;;;;;4964433;28;20062;-86
2021/07/13 11:36:42;;;;;;;10.32;9.52;;;30.80;99.90;;;;;;4967848;28;20389;-87
2021/07/13 11:39:12;;;;;;;12.48;11.40;;;30.90;99.90;;;;;;4967091;28;20114;-86
2021/07/13 11:41:40;;;;;;;;;;;31.00;99.90;;;;;;4952111;28;20054;-86
2021/07/13 11:44:11;;;;;;;12.02;10.80;;;31.00;99.90;;;;;;4966164;28;19930;-86
2021/07/13 11:46:41;;;;;;;10.88;9.88;;;31.10;99.90;;;;;;4967924;28;20047;-86
2021/07/13 11:49:25;;;;;;;10.73;9.88;;;31.10;99.90;;;;;;4967950;28;20179;-86
2021/07/13 11:52:00;;;;;;;10.40;9.68;;;31.10;99.90;;;;;;4922324;28;20063;-86
2021/07/13 11:54:29;;;;;;;11.70;10.85;;;31.10;99.90;;;;;;4941921;28;20573;-86
2021/07/13 11:56:58;;;;;;;11.82;10.23;;;31.10;99.90;;;;;;4944604;28;20513;-86
2021/07/13 11:59:28;;;;;;;11.30;10.30;;;31.20;99.90;;;;;;4919495;28;20493;-85
2021/07/13 12:02:08;;;;;;;12.52;11.50;;;31.30;99.90;;;;;;4927354;28;20067;-86
2021/07/13 12:04:38;;;;;;;10.60;9.50;;;31.50;99.90;;;;;;4926659;28;20039;-87
2021/07/13 12:07:05;;;;;;;10.13;9.32;;;31.60;99.90;;;;;;4947400;28;20178;-86
2021/07/13 12:09:34;;;;;;;10.15;9.30;;;31.50;99.90;;;;;;4935764;28;20052;-86
2021/07/13 12:12:15;;;;;;;12.05;11.05;;;31.70;99.90;;;;;;4942670;28;20043;-87
2021/07/13 12:14:46;;;;;;;13.13;11.80;;;31.80;99.90;;;;;;4930051;28;20131;-86
2021/07/13 12:17:20;;;;;;;13.23;10.68;;;31.90;99.90;;;;;;4928853;29;20395;-86
2021/07/13 12:19:47;;;;;;;11.07;10.18;;;31.80;99.90;;;;;;4929246;28;20087;-86
2021/07/13 12:22:20;;;;;;;11.23;10.30;;;31.80;99.90;;;;;;4910369;28;20346;-86
2021/07/13 12:24:48;;;;;;;11.93;10.82;;;31.80;99.90;;;;;;4925420;28;20047;-87
2021/07/13 12:27:23;;;;;;;12.07;10.90;;;31.90;99.90;;;;;;4934909;28;20039;-86
2021/07/13 12:29:55;;;;;;;10.38;9.55;;;31.80;99.90;;;;;;4927856;28;20445;-87
2021/07/13 12:32:27;;;;;;;12.30;10.57;;;31.80;99.90;;;;;;4925399;28;20049;-86
2021/07/13 12:34:55;;;;;;;12.95;11.35;;;31.90;99.90;;;;;;4907939;28;20050;-86
2021/07/13 12:37:31;;;;;;;11.90;10.68;;;31.90;99.90;;;;;;4926520;29;20106;-86
2021/07/13 12:40:01;;;;;;;12.50;11.20;;;32.00;99.90;;;;;;4928937;28;20045;-86
2021/07/13 12:43:07;;;;;;;10.70;9.80;;;32.10;99.90;;;;;;4922452;28;20551;-86
2021/07/13 12:46:30;;;;;;;12.45;11.10;;;32.10;99.90;;;;;;4932904;28;20050;-86
2021/07/13 12:49:09;;;;;;;11.98;11.10;;;32.20;99.90;;;;;;4923724;28;20047;-86
2021/07/13 12:51:41;;;;;;;13.23;11.93;;;32.30;99.90;;;;;;4941776;28;20044;-86
2021/07/13 12:54:23;;;;;;;11.20;10.20;;;32.40;99.90;;;;;;4916129;28;20162;-86
2021/07/13 12:56:50;;;;;;;13.63;12.50;;;32.50;99.90;;;;;;4929236;28;20055;-86
2021/07/13 12:59:18;;;;;;;12.48;11.50;;;32.50;99.90;;;;;;4938095;28;20058;-86